Time;durP1;ratioP1;P1;durP2;ratioP2;P2;SDS_P1;SDS_P2;PMS_P1;PMS_P2;Temp;Humidity;BMP_temperature;BMP_pressure;BME280_temperature;BME280_humidity;BME280_pressure;Samples;Min_cycle;Max_cycle;Signal;HPM_P1;HPM_P2
2023/03/26 00:01:22;;;;;;;13.18;2.78;;;;;;;3.56;100.00;99999.13;5019449;28;20084;-93
2023/03/26 00:03:52;;;;;;;7.07;2.35;;;;;;;3.65;100.00;100027.44;5019563;28;20133;-94
2023/03/26 00:06:25;;;;;;;10.90;2.65;;;;;;;3.35;100.00;99965.06;5006882;28;20046;-92
2023/03/26 00:08:52;;;;;;;10.98;2.72;;;;;;;3.98;100.00;100072.50;5002423;28;20049;-93
2023/03/26 00:11:21;;;;;;;7.13;2.40;;;;;;;3.73;100.00;100025.53;5033397;28;20057;-92
2023/03/26 00:13:48;;;;;;;8.90;2.53;;;;;;;4.05;100.00;100080.97;5017768;28;20065;-93
2023/03/26 00:16:18;;;;;;;10.07;2.10;;;;;;;4.06;100.00;100098.22;5017204;28;20439;-93
2023/03/26 00:18:47;;;;;;;9.82;2.25;;;;;;;3.49;100.00;100007.91;5019628;28;20045;-93
2023/03/26 00:21:16;;;;;;;11.90;2.38;;;;;;;3.02;100.00;99918.25;5019472;28;20054;-92
2023/03/26 00:23:44;;;;;;;8.73;2.55;;;;;;;3.58;100.00;100018.94;5021208;28;20136;-94
2023/03/26 00:26:11;;;;;;;10.68;2.70;;;;;;;3.27;100.00;99977.28;5001100;28;20046;-94
2023/03/26 00:28:40;;;;;;;7.25;2.13;;;;;;;3.82;100.00;100072.84;5000807;28;20064;-94
2023/03/26 00:31:12;;;;;;;10.68;2.28;;;;;;;3.42;100.00;100009.78;5010062;28;20060;-93
2023/03/26 00:33:40;;;;;;;8.15;2.25;;;;;;;3.01;100.00;99944.16;5015903;28;20054;-94
2023/03/26 00:36:18;;;;;;;11.13;2.25;;;;;;;3.82;100.00;100070.25;5000365;28;20050;-93
2023/03/26 00:38:46;;;;;;;7.43;2.00;;;;;;;3.36;100.00;99996.94;5026951;28;20053;-94
2023/03/26 00:41:16;;;;;;;12.25;3.00;;;;;;;2.80;100.00;99904.91;5002530;28;20106;-92
2023/03/26 00:43:45;;;;;;;8.50;2.33;;;;;;;3.04;100.00;99944.94;5017065;28;20104;-93
2023/03/26 00:46:13;;;;;;;6.45;2.20;;;;;;;3.04;100.00;99947.53;5000360;28;20089;-92
2023/03/26 00:48:41;;;;;;;5.93;2.13;;;;;;;3.55;100.00;100031.09;5009552;28;20050;-93
2023/03/26 00:51:14;;;;;;;7.40;1.90;;;;;;;3.68;100.00;100060.16;5035779;28;20050;-94
2023/03/26 00:53:43;;;;;;;8.18;2.05;;;;;;;3.27;100.00;99995.38;5021420;28;20050;-91
2023/03/26 00:56:10;;;;;;;9.43;2.20;;;;;;;2.96;100.00;99948.59;5020280;28;20195;-92
2023/03/26 00:58:38;;;;;;;6.82;1.90;;;;;;;3.36;100.00;99999.53;5001402;28;20133;-93
2023/03/26 01:01:08;;;;;;;8.52;1.85;;;;;;;4.03;100.00;100102.63;5011789;28;20056;-93
2023/03/26 01:03:37;;;;;;;9.88;1.70;;;;;;;3.78;100.00;100070.31;5032392;28;20050;-94
2023/03/26 01:06:18;;;;;;;4.25;1.30;;;;;;;3.10;100.00;99964.69;5019782;28;20054;-93
2023/03/26 01:08:48;;;;;;;7.03;2.00;;;;;;;4.02;100.00;100103.50;5021458;28;20069;-93
2023/03/26 01:11:27;;;;;;;7.82;1.83;;;;;;;3.88;100.00;100085.63;5015454;28;20492;-92
2023/03/26 01:13:59;;;;;;;7.60;1.83;;;;;;;3.85;100.00;100065.84;5002110;28;20050;-91
2023/03/26 01:16:48;;;;;;;9.18;2.63;;;;;;;4.36;100.00;100137.34;5012446;28;20050;-92
2023/03/26 01:19:43;;;;;;;10.95;2.03;;;;;;;4.10;100.00;100086.91;5004945;28;20476;-92
2023/03/26 01:22:15;;;;;;;5.85;1.60;;;;;;;4.21;100.00;100097.03;5003526;28;20444;-93
2023/03/26 01:24:45;;;;;;;10.65;2.22;;;;;;;4.08;100.00;100100.78;5005979;28;20058;-93
2023/03/26 01:27:34;;;;;;;8.75;2.08;;;;;;;4.42;100.00;100149.31;5015821;28;20049;-93
2023/03/26 01:30:26;;;;;;;7.45;1.90;;;;;;;4.44;100.00;100150.13;5004921;28;20073;-93
2023/03/26 01:32:54;;;;;;;14.02;1.98;;;;;;;3.92;100.00;100061.41;5011661;28;20046;-91
2023/03/26 01:36:02;;;;;;;9.02;2.08;;;;;;;3.94;100.00;100062.22;4994008;28;20066;-91
2023/03/26 01:38:52;;;;;;;8.52;2.03;;;;;;;4.39;100.00;100145.03;4995846;28;20074;-92
2023/03/26 01:41:18;;;;;;;4.40;1.65;;;;;;;4.33;100.00;100147.75;5026428;28;20049;-92
2023/03/26 01:44:20;;;;;;;8.68;1.80;;;;;;;4.42;100.00;100152.75;5010671;28;20054;-92
2023/03/26 01:46:48;;;;;;;8.82;1.92;;;;;;;4.01;100.00;100097.47;5007714;28;20073;-91
2023/03/26 01:49:17;;;;;;;9.57;1.98;;;;;;;4.35;100.00;100153.75;4993573;28;20061;-91
2023/03/26 01:51:43;;;;;;;8.98;2.70;;;;;;;4.10;100.00;100125.78;5026156;28;20048;-90
2023/03/26 01:54:20;;;;;;;4.03;1.48;;;;;;;3.99;100.00;100097.50;5013653;28;20072;-92
2023/03/26 01:57:00;;;;;;;6.18;1.52;;;;;;;3.94;100.00;100083.78;5012411;28;20046;-92
2023/03/26 01:59:51;;;;;;;8.23;1.67;;;;;;;4.45;100.00;100157.88;5014146;28;20045;-91
2023/03/26 02:02:30;;;;;;;8.57;2.80;;;;;;;4.30;100.00;100130.56;4996286;28;20429;-92
2023/03/26 02:05:25;;;;;;;6.00;1.67;;;;;;;4.01;100.00;100087.09;4998051;28;20054;-92
2023/03/26 02:08:10;;;;;;;5.88;1.73;;;;;;;4.10;100.00;100089.50;5009272;28;20054;-93
2023/03/26 02:10:48;;;;;;;10.50;2.70;;;;;;;4.29;100.00;100133.19;4999112;28;20050;-92
2023/03/26 02:13:15;;;;;;;7.60;1.90;;;;;;;4.38;100.00;100123.44;4998421;28;20061;-93
2023/03/26 02:16:01;;;;;;;8.50;2.20;;;;;;;4.71;100.00;100164.19;5015687;28;20053;-93
2023/03/26 02:18:40;;;;;;;7.30;2.25;;;;;;;4.55;100.00;100156.78;5015636;28;20427;-93
2023/03/26 02:21:11;;;;;;;10.75;2.58;;;;;;;4.76;100.00;100164.97;5013679;28;20059;-92
2023/03/26 02:23:39;;;;;;;13.23;2.50;;;;;;;4.54;100.00;100165.44;5010403;28;20502;-92
2023/03/26 02:26:09;;;;;;;15.68;2.97;;;;;;;4.43;100.00;100133.72;4997050;28;20077;-93
2023/03/26 02:28:36;;;;;;;14.13;3.30;;;;;;;4.52;100.00;100162.03;5008259;28;20042;-94
2023/03/26 02:31:04;;;;;;;10.18;2.50;;;;;;;4.63;100.00;100163.53;5016196;28;20050;-93
2023/03/26 02:33:31;;;;;;;16.50;4.13;;;;;;;4.29;100.00;100122.81;5016508;28;20064;-92
2023/03/26 02:36:00;;;;;;;16.42;3.28;;;;;;;4.18;100.00;100148.94;5017439;28;20060;-92
2023/03/26 02:38:28;;;;;;;9.27;2.40;;;;;;;4.10;100.00;100122.34;5009093;28;20536;-93
2023/03/26 02:40:55;;;;;;;13.95;2.75;;;;;;;3.93;100.00;100113.19;4999111;28;20409;-92
2023/03/26 02:43:22;;;;;;;13.63;2.85;;;;;;;4.06;100.00;100110.34;5007770;28;20043;-92
2023/03/26 02:45:49;;;;;;;12.45;2.85;;;;;;;4.10;100.00;100106.78;4995553;28;20050;-91
2023/03/26 02:48:16;;;;;;;16.00;2.53;;;;;;;4.19;100.00;100107.44;5016977;28;20050;-93
2023/03/26 02:50:43;;;;;;;17.35;2.85;;;;;;;4.09;100.00;100094.72;5012000;28;20057;-92
2023/03/26 02:53:12;;;;;;;13.50;2.95;;;;;;;4.18;100.00;100103.16;5026364;28;20054;-94
2023/03/26 02:55:39;;;;;;;9.88;3.25;;;;;;;4.25;100.00;100114.25;4996243;28;20058;-93
2023/03/26 02:58:06;;;;;;;11.32;2.60;;;;;;;4.61;100.00;100173.94;4996122;28;20503;-94
2023/03/26 03:00:33;;;;;;;7.88;2.22;;;;;;;4.32;100.00;100113.22;5011579;28;20135;-93
2023/03/26 03:03:03;;;;;;;8.45;2.38;;;;;;;4.49;100.00;100141.34;5008994;28;20046;-92
2023/03/26 03:05:31;;;;;;;9.70;2.20;;;;;;;4.70;100.00;100173.72;5015196;28;20073;-91
2023/03/26 03:07:58;;;;;;;10.35;2.17;;;;;;;4.65;100.00;100172.97;5001675;28;20404;-94
2023/03/26 03:10:27;;;;;;;5.93;1.75;;;;;;;4.28;100.00;100134.88;5013947;28;20054;-92
2023/03/26 03:12:54;;;;;;;9.57;1.92;;;;;;;4.10;100.00;100123.19;5001638;28;20054;-92
2023/03/26 03:15:20;;;;;;;9.18;1.95;;;;;;;4.18;100.00;100128.22;5009561;28;20068;-91
2023/03/26 03:17:47;;;;;;;9.30;2.28;;;;;;;4.02;100.00;100099.19;5014169;28;20419;-92
2023/03/26 03:20:15;;;;;;;5.90;1.42;;;;;;;4.17;100.00;100140.31;5010672;28;20100;-90
2023/03/26 03:22:42;;;;;;;6.50;1.90;;;;;;;4.02;100.00;100114.72;5011093;28;20068;-92
2023/03/26 03:25:13;;;;;;;7.55;1.85;;;;;;;4.24;100.00;100164.34;5006147;28;20065;-92
2023/03/26 03:27:41;;;;;;;6.75;1.60;;;;;;;4.24;100.00;100166.09;5030892;28;20060;-92
2023/03/26 03:30:11;;;;;;;7.00;1.63;;;;;;;3.89;100.00;100127.06;5015030;28;20058;-92
2023/03/26 03:32:38;;;;;;;9.40;1.90;;;;;;;3.89;100.00;100145.19;5009273;28;20076;-92
2023/03/26 03:35:06;;;;;;;8.82;1.90;;;;;;;3.82;100.00;100143.59;5021125;28;20050;-93
2023/03/26 03:37:33;;;;;;;5.40;1.52;;;;;;;3.79;100.00;100129.00;5012817;28;20057;-92
2023/03/26 03:39:59;;;;;;;6.30;2.45;;;;;;;3.51;100.00;100099.34;5009115;28;20077;-91
2023/03/26 03:42:26;;;;;;;6.05;1.83;;;;;;;3.77;100.00;100135.06;5014160;28;20041;-91
2023/03/26 03:44:53;;;;;;;8.93;1.95;;;;;;;3.92;100.00;100152.06;5014330;28;20049;-93
2023/03/26 03:47:21;;;;;;;8.27;2.63;;;;;;;3.70;100.00;100134.34;5013686;28;20060;-91
2023/03/26 03:49:49;;;;;;;5.05;1.80;;;;;;;3.89;100.00;100155.53;4994889;28;20061;-93
2023/03/26 03:52:17;;;;;;;5.60;1.73;;;;;;;3.77;100.00;100145.41;5004291;28;20056;-92
2023/03/26 03:54:44;;;;;;;7.68;1.92;;;;;;;3.73;100.00;100142.03;4995652;28;20126;-92
2023/03/26 03:57:10;;;;;;;6.68;1.75;;;;;;;3.72;100.00;100130.00;5019955;28;20050;-93
2023/03/26 03:59:37;;;;;;;6.30;1.67;;;;;;;3.70;100.00;100136.06;5001252;28;20046;-92
2023/03/26 04:02:19;;;;;;;10.23;2.05;;;;;;;3.70;100.00;100139.53;5003706;28;20491;-92
2023/03/26 04:04:48;;;;;;;8.73;2.05;;;;;;;3.65;100.00;100130.13;5009460;28;20050;-91
2023/03/26 04:07:15;;;;;;;12.75;2.95;;;;;;;3.44;100.00;100106.34;5004647;28;20052;-91
2023/03/26 04:09:42;;;;;;;17.00;2.70;;;;;;;3.82;100.00;100172.09;5006386;28;20054;-92
2023/03/26 04:12:09;;;;;;;13.27;3.95;;;;;;;3.49;100.00;100106.25;5012162;28;20046;-94
2023/03/26 04:14:36;;;;;;;7.65;3.03;;;;;;;3.69;100.00;100147.31;5029830;28;20108;-92
2023/03/26 04:17:04;;;;;;;9.70;2.17;;;;;;;3.56;100.00;100137.19;5011455;28;20503;-93
2023/03/26 04:19:31;;;;;;;8.18;2.03;;;;;;;3.77;100.00;100150.59;5006164;28;20068;-92
2023/03/26 04:22:01;;;;;;;8.07;2.53;;;;;;;3.62;100.00;100120.69;4993407;28;20113;-92
2023/03/26 04:24:28;;;;;;;7.82;1.92;;;;;;;3.93;100.00;100171.88;5009916;28;20053;-92
2023/03/26 04:27:00;;;;;;;9.55;2.33;;;;;;;3.76;100.00;100165.28;5005879;28;20054;-92
2023/03/26 04:29:29;;;;;;;7.50;1.85;;;;;;;3.79;100.00;100148.84;5017790;28;20049;-92
2023/03/26 04:32:05;;;;;;;9.23;3.30;;;;;;;3.55;100.00;100126.84;5021163;28;20046;-93
2023/03/26 04:34:33;;;;;;;10.05;1.92;;;;;;;3.61;100.00;100171.63;5029645;28;20487;-91
2023/03/26 04:37:03;;;;;;;14.80;2.28;;;;;;;3.86;100.00;100194.47;5013269;28;20061;-92
2023/03/26 04:39:33;;;;;;;9.07;1.90;;;;;;;3.77;100.00;100148.00;4995049;28;20411;-92
2023/03/26 04:41:59;;;;;;;11.48;2.53;;;;;;;3.95;100.00;100168.41;5001109;28;20439;-93
2023/03/26 04:44:29;;;;;;;10.13;2.42;;;;;;;3.97;100.00;100176.97;5012175;28;20484;-94
2023/03/26 04:46:55;;;;;;;9.50;2.83;;;;;;;3.94;100.00;100182.22;5003842;28;20061;-94
2023/03/26 04:49:22;;;;;;;9.73;2.92;;;;;;;3.90;100.00;100148.66;4999167;28;20077;-92
2023/03/26 04:51:49;;;;;;;8.60;2.08;;;;;;;4.01;100.00;100182.13;5009376;28;20543;-93
2023/03/26 04:54:21;;;;;;;10.73;2.50;;;;;;;3.90;100.00;100178.00;4993554;28;20054;-93
2023/03/26 04:57:22;;;;;;;11.13;2.78;;;;;;;4.17;100.00;100207.66;4999966;28;20080;-92
2023/03/26 04:59:49;;;;;;;13.50;3.15;;;;;;;3.41;100.00;100140.03;4998931;28;20059;-92
2023/03/26 05:02:17;;;;;;;9.15;2.40;;;;;;;3.66;100.00;100174.09;4993351;28;20046;-92
2023/03/26 05:04:48;;;;;;;10.27;2.80;;;;;;;3.87;100.00;100174.59;5005496;28;20058;-92
2023/03/26 05:07:24;;;;;;;8.40;2.22;;;;;;;4.15;100.00;100209.44;5001920;28;20042;-91
2023/03/26 05:09:50;;;;;;;21.55;2.75;;;;;;;3.91;100.00;100205.59;5027897;28;20073;-91
2023/03/26 05:12:17;;;;;;;12.40;2.45;;;;;;;3.87;100.00;100157.31;5005812;28;20050;-92
2023/03/26 05:14:44;;;;;;;15.80;3.17;;;;;;;4.01;100.00;100192.47;5002633;28;20046;-93
2023/03/26 05:17:13;;;;;;;9.48;2.70;;;;;;;4.33;100.00;100230.69;4996600;28;20101;-92
2023/03/26 05:19:40;;;;;;;9.85;2.40;;;;;;;4.15;100.00;100229.34;4992854;28;20065;-92
2023/03/26 05:22:07;;;;;;;7.70;2.72;;;;;;;4.06;100.00;100212.22;5004407;28;20055;-92
2023/03/26 05:24:34;;;;;;;12.57;2.78;;;;;;;3.99;100.00;100195.94;5005654;28;20497;-92
2023/03/26 05:27:00;;;;;;;11.65;2.47;;;;;;;4.23;100.00;100240.38;4993277;28;20050;-93
2023/03/26 05:29:27;;;;;;;12.77;2.92;;;;;;;3.98;100.00;100204.59;5011940;28;20403;-92
2023/03/26 05:31:54;;;;;;;12.88;2.72;;;;;;;4.12;100.00;100230.22;5001249;28;20050;-93
2023/03/26 05:34:25;;;;;;;11.50;3.22;;;;;;;3.93;100.00;100216.78;4997992;28;20081;-92
2023/03/26 05:36:51;;;;;;;12.10;2.85;;;;;;;3.92;100.00;100237.53;5012627;28;20120;-92
2023/03/26 05:39:21;;;;;;;14.85;2.70;;;;;;;3.76;100.00;100201.53;5011981;28;20050;-93
2023/03/26 05:41:48;;;;;;;18.02;5.32;;;;;;;3.72;100.00;100189.53;5005544;28;20057;-91
2023/03/26 05:44:15;;;;;;;12.63;2.80;;;;;;;3.97;100.00;100253.84;5000910;28;20069;-92
2023/03/26 05:46:42;;;;;;;12.45;4.15;;;;;;;3.92;100.00;100253.91;4998919;28;20124;-92
2023/03/26 05:49:09;;;;;;;11.65;2.50;;;;;;;3.44;100.00;100184.00;5006548;28;20068;-92
2023/03/26 05:51:35;;;;;;;14.23;3.42;;;;;;;3.50;100.00;100227.03;5003490;28;20066;-92
2023/03/26 05:54:03;;;;;;;11.82;2.22;;;;;;;3.79;100.00;100274.00;5032008;28;20092;-93
2023/03/26 05:56:30;;;;;;;9.52;2.20;;;;;;;3.59;100.00;100219.09;5015798;28;20057;-92
2023/03/26 05:58:57;;;;;;;10.13;2.97;;;;;;;3.65;100.00;100231.09;5028268;28;20088;-91
2023/03/26 06:01:24;;;;;;;10.20;2.50;;;;;;;3.79;100.00;100237.75;5003820;28;20053;-91
2023/03/26 06:03:51;;;;;;;8.25;2.20;;;;;;;4.03;100.00;100281.38;5015574;28;20132;-92
2023/03/26 06:06:19;;;;;;;13.32;2.63;;;;;;;3.66;100.00;100225.03;5015499;28;20112;-93
2023/03/26 06:08:49;;;;;;;12.43;2.30;;;;;;;3.87;100.00;100296.34;5026753;28;20126;-91
2023/03/26 06:11:30;;;;;;;18.80;2.50;;;;;;;3.84;100.00;100244.56;5007138;28;20061;-93
2023/03/26 06:13:58;;;;;;;8.32;2.05;;;;;;;3.84;100.00;100267.88;5006957;28;20046;-92
2023/03/26 06:16:25;;;;;;;8.23;2.30;;;;;;;3.78;100.00;100266.25;5021830;28;20053;-93
2023/03/26 06:18:55;;;;;;;17.40;2.97;;;;;;;4.05;100.00;100303.78;5006658;28;20440;-93
2023/03/26 06:21:24;;;;;;;10.65;2.13;;;;;;;3.96;100.00;100276.28;5006568;28;20053;-93
2023/03/26 06:23:51;;;;;;;13.13;2.17;;;;;;;3.85;100.00;100273.03;5012521;28;20054;-93
2023/03/26 06:26:19;;;;;;;8.45;1.95;;;;;;;3.66;100.00;100235.41;5015027;28;20136;-93
2023/03/26 06:28:46;;;;;;;10.93;2.15;;;;;;;3.88;100.00;100279.88;5012815;28;20100;-93
2023/03/26 06:31:13;;;;;;;16.05;2.63;;;;;;;3.94;100.00;100291.00;5015401;28;20057;-93
2023/03/26 06:33:40;;;;;;;9.77;2.50;;;;;;;3.69;100.00;100243.97;5015090;28;20050;-93
2023/03/26 06:36:07;;;;;;;13.40;2.20;;;;;;;3.82;100.00;100286.03;5015311;28;20070;-93
2023/03/26 06:38:34;;;;;;;10.18;3.03;;;;;;;3.89;100.00;100312.69;5012316;28;20054;-94
2023/03/26 06:41:02;;;;;;;9.68;2.20;;;;;;;4.03;100.00;100325.41;5011457;28;20058;-93
2023/03/26 06:43:32;;;;;;;11.40;2.60;;;;;;;4.15;100.00;100325.19;5015317;28;20053;-94
2023/03/26 06:46:00;;;;;;;12.60;2.22;;;;;;;3.92;100.00;100316.09;5000777;28;20069;-94
2023/03/26 06:48:27;;;;;;;10.52;2.30;;;;;;;4.14;100.00;100321.78;4997067;28;20057;-94
2023/03/26 06:50:54;;;;;;;9.48;2.35;;;;;;;3.96;100.00;100296.16;5009599;28;20054;-93
2023/03/26 06:53:22;;;;;;;12.10;2.97;;;;;;;4.09;100.00;100343.44;5031717;28;20049;-93
2023/03/26 06:55:48;;;;;;;10.05;2.40;;;;;;;4.02;100.00;100314.22;5015661;28;20077;-93
2023/03/26 06:58:15;;;;;;;8.75;2.17;;;;;;;3.90;100.00;100291.94;5030392;28;20054;-94
2023/03/26 07:00:42;;;;;;;12.80;2.75;;;;;;;4.16;100.00;100320.00;5014986;28;20057;-93
2023/03/26 07:03:10;;;;;;;10.27;2.65;;;;;;;4.09;100.00;100325.28;5014670;28;20050;-94
2023/03/26 07:05:39;;;;;;;9.35;3.45;;;;;;;4.23;100.00;100330.25;5014693;28;20057;-94
2023/03/26 07:08:06;;;;;;;11.45;2.58;;;;;;;3.99;100.00;100324.63;5015170;28;20049;-94
2023/03/26 07:10:32;;;;;;;11.95;3.38;;;;;;;4.18;100.00;100322.56;4996410;28;20053;-94
2023/03/26 07:12:59;;;;;;;11.98;2.53;;;;;;;4.44;100.00;100375.66;4995191;28;20046;-93
2023/03/26 07:15:27;;;;;;;10.00;2.30;;;;;;;4.44;100.00;100373.06;4995391;28;20050;-93
2023/03/26 07:17:55;;;;;;;14.35;2.63;;;;;;;4.24;100.00;100344.91;4995320;28;20093;-94
2023/03/26 07:20:22;;;;;;;9.88;2.40;;;;;;;4.59;100.00;100377.13;4996205;28;20054;-94
2023/03/26 07:22:49;;;;;;;9.65;2.15;;;;;;;4.17;100.00;100319.09;4995202;28;20051;-93
2023/03/26 07:25:18;;;;;;;6.90;2.38;;;;;;;4.45;100.00;100349.72;5001193;28;20070;-94
2023/03/26 07:28:13;;;;;;;14.05;2.30;;;;;;;4.65;100.00;100398.59;4999895;28;20061;-94
2023/03/26 07:30:48;;;;;;;8.88;2.10;;;;;;;4.75;100.00;100397.53;5008730;28;20050;-93
2023/03/26 07:33:27;;;;;;;10.93;2.20;;;;;;;4.59;100.00;100338.25;5007624;28;20092;-93
2023/03/26 07:36:25;;;;;;;8.77;1.90;;;;;;;5.05;100.00;100399.59;5027903;28;20060;-92
2023/03/26 07:38:55;;;;;;;10.02;2.08;;;;;;;4.57;100.00;100346.03;5001164;28;20050;-93
2023/03/26 07:41:34;;;;;;;7.55;2.55;;;;;;;5.13;100.00;100413.25;4993947;28;20061;-93
2023/03/26 07:44:22;;;;;;;9.85;2.08;;;;;;;5.05;100.00;100413.41;5010362;28;20054;-93
2023/03/26 07:46:52;;;;;;;8.57;2.03;;;;;;;4.84;100.00;100378.34;5005809;28;20050;-94
2023/03/26 07:49:20;;;;;;;7.25;1.70;;;;;;;4.85;100.00;100377.47;5010288;28;20052;-92
2023/03/26 07:51:47;;;;;;;8.55;1.80;;;;;;;5.38;100.00;100391.97;5003997;28;20404;-94
2023/03/26 07:54:15;;;;;;;8.10;2.10;;;;;;;5.28;100.00;100383.53;5014451;28;20049;-92
2023/03/26 07:56:53;;;;;;;6.10;2.00;;;;;;;5.49;100.00;100408.19;4993679;28;20058;-92
2023/03/26 07:59:39;;;;;;;6.65;1.80;;;;;;;6.19;100.00;100438.66;4994827;28;20043;-93
2023/03/26 08:02:29;;;;;;;9.02;1.85;;;;;;;6.01;100.00;100440.78;5010143;28;20084;-93
2023/03/26 08:05:34;;;;;;;7.10;2.08;;;;;;;6.16;100.00;100442.19;4994368;28;20050;-94
2023/03/26 08:08:07;;;;;;;9.65;2.30;;;;;;;6.58;100.00;100443.75;4991242;28;20054;-94
2023/03/26 08:10:46;;;;;;;13.07;2.72;;;;;;;6.90;100.00;100461.09;4994869;28;20472;-93
2023/03/26 08:13:21;;;;;;;9.27;1.70;;;;;;;6.23;100.00;100454.16;5006433;28;20046;-94
2023/03/26 08:16:05;;;;;;;12.63;3.42;;;;;;;5.90;100.00;100399.44;4994734;28;20051;-92
2023/03/26 08:18:32;;;;;;;7.35;1.73;;;;;;;6.17;100.00;100475.06;5004628;28;20054;-92
2023/03/26 08:21:08;;;;;;;9.65;1.95;;;;;;;6.24;100.00;100466.22;4994171;28;20050;-94
2023/03/26 08:23:48;;;;;;;7.07;1.60;;;;;;;6.31;100.00;100464.34;4994971;28;20050;-89
2023/03/26 08:26:54;;;;;;;8.85;2.47;;;;;;;6.43;100.00;100473.59;5001290;28;20046;-95
2023/03/26 08:29:31;;;;;;;8.98;1.85;;;;;;;6.81;100.00;100471.75;5004319;28;20050;-94
2023/03/26 08:31:59;;;;;;;8.20;2.45;;;;;;;6.97;100.00;100446.19;4995107;28;20062;-93
2023/03/26 08:34:25;;;;;;;7.07;1.80;;;;;;;7.04;100.00;100430.34;4998184;28;20053;-94
2023/03/26 08:36:52;;;;;;;7.65;1.90;;;;;;;7.18;100.00;100432.56;5014342;28;20054;-93
2023/03/26 08:39:21;;;;;;;7.05;2.10;;;;;;;6.78;100.00;100427.59;5013239;28;20447;-94
2023/03/26 08:42:09;;;;;;;7.75;2.03;;;;;;;7.01;100.00;100484.25;5014219;28;20058;-93
2023/03/26 08:45:27;;;;;;;8.48;2.33;;;;;;;6.85;100.00;100489.00;5001388;28;20050;-93
2023/03/26 08:48:17;;;;;;;11.20;2.15;;;;;;;6.39;100.00;100495.34;4971266;28;20053;-93
2023/03/26 08:51:06;;;;;;;10.98;2.00;;;;;;;6.08;100.00;100506.50;5011673;28;20050;-94
2023/03/26 08:54:11;;;;;;;6.22;1.70;;;;;;;6.36;100.00;100504.09;4995585;28;20074;-94
2023/03/26 08:56:52;;;;;;;9.73;2.05;;;;;;;5.94;100.00;100505.91;4995346;28;20046;-94
2023/03/26 08:59:25;;;;;;;5.40;1.45;;;;;;;6.29;100.00;100505.13;4996401;28;20050;-92
2023/03/26 09:02:05;;;;;;;7.32;1.85;;;;;;;6.17;100.00;100513.22;4995820;28;20105;-95
2023/03/26 09:04:53;;;;;;;11.20;2.53;;;;;;;6.35;100.00;100522.34;4997405;28;20547;-95
2023/03/26 09:07:41;;;;;;;11.85;2.22;;;;;;;5.99;100.00;100528.34;4996673;28;20096;-94
2023/03/26 09:10:29;;;;;;;7.72;1.80;;;;;;;5.97;100.00;100522.31;5015362;28;20052;-93
2023/03/26 09:13:17;;;;;;;7.85;1.52;;;;;;;6.11;100.00;100535.03;5018794;28;20059;-94
2023/03/26 09:15:56;;;;;;;8.95;1.83;;;;;;;6.65;100.00;100529.38;5016606;28;20053;-87
2023/03/26 09:18:50;;;;;;;11.32;2.15;;;;;;;6.99;100.00;100533.75;5016968;28;20053;-94
2023/03/26 09:22:00;;;;;;;5.00;1.60;;;;;;;7.18;100.00;100512.44;4999022;28;20089;-94
2023/03/26 09:24:47;;;;;;;7.20;1.95;;;;;;;7.62;100.00;100538.16;5017822;28;20050;-91
2023/03/26 09:27:57;;;;;;;6.97;1.50;;;;;;;7.14;100.00;100542.06;5017574;28;20046;-93
2023/03/26 09:30:39;;;;;;;5.45;1.60;;;;;;;6.19;100.00;100493.25;5003860;28;20061;-91
2023/03/26 09:33:41;;;;;;;6.75;1.65;;;;;;;6.33;100.00;100547.53;5017383;28;20053;-92
2023/03/26 09:36:17;;;;;;;7.18;1.88;;;;;;;6.61;100.00;100556.38;5004962;28;20057;-92
2023/03/26 09:38:53;;;;;;;6.68;1.98;;;;;;;6.48;100.00;100531.56;5001866;28;20077;-92
2023/03/26 09:42:03;;;;;;;9.35;2.38;;;;;;;6.51;100.00;100548.84;5018328;28;20050;-92
2023/03/26 09:45:19;;;;;;;9.77;2.10;;;;;;;6.87;100.00;100557.50;4969687;28;20137;-91
2023/03/26 09:48:04;;;;;;;7.78;2.00;;;;;;;6.55;100.00;100504.50;5002458;28;20053;-92
2023/03/26 09:50:51;;;;;;;10.20;2.00;;;;;;;6.72;100.00;100565.69;5008171;28;20072;-91
2023/03/26 09:53:49;;;;;;;9.75;1.98;;;;;;;6.17;100.00;100514.06;5013189;28;20053;-92
2023/03/26 09:56:40;;;;;;;7.47;1.70;;;;;;;6.61;100.00;100568.53;4997823;28;20484;-93
2023/03/26 09:59:17;;;;;;;8.02;1.73;;;;;;;6.40;100.00;100544.72;4997818;28;20442;-92
2023/03/26 10:01:55;;;;;;;6.90;2.03;;;;;;;6.68;100.00;100600.47;5015014;28;20416;-92
2023/03/26 10:05:00;;;;;;;8.80;1.60;;;;;;;5.97;100.00;100604.63;5016043;28;20054;-92
2023/03/26 10:08:09;;;;;;;5.85;1.55;;;;;;;5.92;100.00;100602.09;4996292;28;20583;-93
2023/03/26 10:10:45;;;;;;;7.00;1.55;;;;;;;6.10;100.00;100593.06;5014960;28;20395;-92
2023/03/26 10:13:35;;;;;;;8.27;1.98;;;;;;;6.01;100.00;100594.13;5015419;28;20042;-93
2023/03/26 10:16:23;;;;;;;4.20;1.55;;;;;;;5.88;100.00;100544.13;5025159;28;20487;-93
2023/03/26 10:18:59;;;;;;;6.35;1.50;;;;;;;6.14;100.00;100605.13;4997695;28;20046;-93
2023/03/26 10:21:29;;;;;;;9.45;2.20;;;;;;;6.15;100.00;100613.78;4996363;28;20114;-93
2023/03/26 10:24:21;;;;;;;5.85;1.50;;;;;;;6.67;100.00;100609.16;4996733;28;20392;-92
2023/03/26 10:26:53;;;;;;;3.50;1.10;;;;;;;6.88;100.00;100581.78;4996530;28;20054;-93
2023/03/26 10:29:51;;;;;;;8.05;1.85;;;;;;;7.39;100.00;100607.38;5008748;28;20137;-93
2023/03/26 10:32:29;;;;;;;5.97;1.70;;;;;;;7.46;100.00;100634.97;5004459;28;20066;-93
2023/03/26 10:35:11;;;;;;;6.50;1.52;;;;;;;7.73;100.00;100627.31;5033109;28;20136;-93
2023/03/26 10:37:57;;;;;;;6.78;1.63;;;;;;;7.29;100.00;100624.13;5003172;28;20054;-93
2023/03/26 10:41:03;;;;;;;6.07;2.15;;;;;;;7.30;100.00;100629.31;5013779;28;20042;-94
2023/03/26 10:44:07;;;;;;;8.32;1.58;;;;;;;7.64;100.00;100641.44;5017416;28;20081;-92
2023/03/26 10:46:46;;;;;;;4.43;1.30;;;;;;;7.57;100.00;100643.34;5016416;28;20050;-93
2023/03/26 10:49:24;;;;;;;5.05;1.40;;;;;;;6.82;100.00;100572.38;5015562;28;20400;-92
2023/03/26 10:52:01;;;;;;;11.35;2.30;;;;;;;7.09;100.00;100656.72;5016186;28;20054;-94
2023/03/26 10:54:50;;;;;;;6.32;1.60;;;;;;;6.43;100.00;100656.50;5020542;28;20065;-93
2023/03/26 10:57:28;;;;;;;6.28;1.45;;;;;;;5.86;100.00;100664.56;5023233;28;20060;-91
2023/03/26 11:00:11;;;;;;;7.25;2.00;;;;;;;6.18;100.00;100682.19;5010985;28;20061;-90
2023/03/26 11:02:45;;;;;;;5.93;1.50;;;;;;;6.05;100.00;100693.69;5007670;28;20049;-92
2023/03/26 11:05:34;;;;;;;6.03;1.73;;;;;;;5.22;100.00;100703.78;5000626;28;20054;-89
2023/03/26 11:08:08;;;;;;;5.65;1.60;;;;;;;5.30;100.00;100711.44;5011030;28;20056;-89
2023/03/26 11:10:47;;;;;;;4.13;1.40;;;;;;;4.99;100.00;100682.53;5006470;28;20570;-88
2023/03/26 11:13:32;;;;;;;9.15;2.00;;;;;;;5.08;100.00;100721.28;5012633;28;20054;-89
2023/03/26 11:16:03;;;;;;;3.97;1.48;;;;;;;5.08;100.00;100705.72;5015473;28;20053;-89
2023/03/26 11:19:00;;;;;;;4.93;1.40;;;;;;;5.22;100.00;100710.72;5003633;28;20050;-89
2023/03/26 11:21:52;;;;;;;4.32;1.40;;;;;;;5.26;100.00;100722.78;5011100;28;20057;-88
2023/03/26 11:25:00;;;;;;;5.43;1.70;;;;;;;5.60;100.00;100711.81;5009302;28;20050;-89
2023/03/26 11:27:51;;;;;;;5.03;1.73;;;;;;;6.00;100.00;100708.50;5024079;28;20632;-89
2023/03/26 11:30:43;;;;;;;6.95;1.88;;;;;;;6.12;100.00;100728.22;5005038;28;20404;-89
2023/03/26 11:33:18;;;;;;;8.07;1.67;;;;;;;5.53;100.00;100697.25;5016111;28;20104;-88
2023/03/26 11:35:49;;;;;;;8.27;2.05;;;;;;;5.49;100.00;100707.66;4999846;28;20058;-88
2023/03/26 11:38:25;;;;;;;6.43;1.85;;;;;;;5.87;100.00;100750.28;5013262;28;20053;-89
2023/03/26 11:40:55;;;;;;;4.70;1.45;;;;;;;5.89;100.00;100763.25;5014586;28;20061;-88
2023/03/26 11:43:32;;;;;;;4.97;1.70;;;;;;;5.61;100.00;100757.69;5008186;28;20791;-88
2023/03/26 11:46:02;;;;;;;7.00;1.60;;;;;;;5.96;100.00;100753.66;4997066;28;20530;-88
2023/03/26 11:48:41;;;;;;;6.90;2.05;;;;;;;6.32;100.00;100759.03;5010528;28;20056;-88
2023/03/26 11:51:31;;;;;;;6.30;1.80;;;;;;;5.59;100.00;100723.09;5008494;28;20065;-89
2023/03/26 11:53:59;;;;;;;10.30;2.05;;;;;;;5.39;100.00;100737.25;5011178;28;20045;-88
2023/03/26 11:56:54;;;;;;;7.40;1.70;;;;;;;5.61;100.00;100779.34;5010373;28;20368;-89
2023/03/26 11:59:49;;;;;;;5.63;1.67;;;;;;;5.32;100.00;100777.19;5000133;28;20053;-89